Benchi Express — EABV — position and weather

sailwx.info

Track history (hours):
 
Tides and Currents Weather Stations Pressure Air Temp Water Temp Dewpoint Dewpoint Depression Visibility Wind Speed Wind Dir Waves Ship Positions

Benchi Express

Last reported at 2017-Sep-20 15:20 UTC. Time now 2017-Sep-21 08:58 UTC.
Position N 40°44' E 001°23'.

Length 38 m; draft 1.6 m.

Type: Ship. MMSI: 225400000.

Date/timePositionNaut miles runAvg speedWind from/ knotsBaromVisibWave heightAir tempDewpointWater temp
2017-Sep-20 15:20N 40°44' E 001°23'18 0.5
2017-Sep-19 06:29N 40°27' E 001°13'3 6.7
2017-Sep-19 05:59N 40°28' E 001°18'3 5.8
2017-Sep-19 05:30N 40°28' E 001°21'3 5.1
2017-Sep-19 05:00N 40°29' E 001°24'2 3.5
2017-Sep-19 04:30N 40°28' E 001°27'3 5.0
2017-Sep-19 04:00N 40°29' E 001°30'3 5.6
2017-Sep-19 03:30N 40°27' E 001°33'510.7
2017-Sep-19 03:01N 40°23' E 001°37'611.6
2017-Sep-19 02:30N 40°18' E 001°41'611.6
2017-Sep-19 02:00N 40°13' E 001°46'510.2
2017-Sep-19 01:30N 40°09' E 001°49'611.5
2017-Sep-19 01:00N 40°03' E 001°52'510.4
2017-Sep-19 00:30N 39°59' E 001°56'612.0
2017-Sep-19 00:00N 39°54' E 002°00'713.5
2017-Sep-18 23:30N 39°48' E 002°04'713.2
2017-Sep-18 22:58N 39°42' E 002°09'613.1
2017-Sep-18 22:30N 39°37' E 002°13'712.6
2017-Sep-18 21:58N 39°31' E 002°18'612.4
2017-Sep-18 21:30N 39°28' E 002°25'611.8
2017-Sep-18 21:00N 39°27' E 002°32'611.5
2017-Sep-18 20:30N 39°31' E 002°37'3 6.2
2017-Sep-18 20:00N 39°34' E 002°38'0 0.0
2017-Sep-18 19:30N 39°34' E 002°38'0 0.0
2017-Sep-18 19:00N 39°34' E 002°38'0 0.0
2017-Sep-18 18:30N 39°34' E 002°38'0 0.0
2017-Sep-18 18:00N 39°34' E 002°38'0 0.0
2017-Sep-18 17:30N 39°34' E 002°38'0 0.0
2017-Sep-18 17:00N 39°34' E 002°38'0 0.0
2017-Sep-18 16:30N 39°34' E 002°38'0 0.0
2017-Sep-18 16:00N 39°34' E 002°38'0 0.0
2017-Sep-18 15:30N 39°34' E 002°38'0 0.0
2017-Sep-18 15:00N 39°34' E 002°38'0 0.0
2017-Sep-18 14:30N 39°34' E 002°38'0 0.0
2017-Sep-18 14:00N 39°34' E 002°38'0 0.0
2017-Sep-18 13:30N 39°34' E 002°38'0 0.0
2017-Sep-18 13:00N 39°34' E 002°38'0 0.0
2017-Sep-18 12:30N 39°34' E 002°38'0 0.0
2017-Sep-18 12:00N 39°34' E 002°38'0 0.0
2017-Sep-18 11:27N 39°34' E 002°38'0 0.0
2017-Sep-18 10:57N 39°34' E 002°38'0 0.0
2017-Sep-18 10:30N 39°34' E 002°38'0 0.0
2017-Sep-18 10:00N 39°34' E 002°38'0 0.0
2017-Sep-18 09:30N 39°34' E 002°38'0 0.0
2017-Sep-18 09:00N 39°34' E 002°38'0 0.0
2017-Sep-18 08:30N 39°34' E 002°38'0 0.3
2017-Sep-18 08:00N 39°34' E 002°38'0 0.3
2017-Sep-18 07:30N 39°34' E 002°38'0 0.0
2017-Sep-18 07:00N 39°34' E 002°38'0 0.1
2017-Sep-18 06:30N 39°34' E 002°38'0 0.1
2017-Sep-18 06:00N 39°34' E 002°38'0 0.6
2017-Sep-18 05:30N 39°34' E 002°38'0 0.0
2017-Sep-18 05:00N 39°34' E 002°38'0 0.0
2017-Sep-18 04:29N 39°34' E 002°38'0 0.0
2017-Sep-18 03:59N 39°34' E 002°38'0 0.0
2017-Sep-18 03:30N 39°34' E 002°38'0 0.0
2017-Sep-18 02:59N 39°34' E 002°38'0 0.0
2017-Sep-18 02:29N 39°34' E 002°38'0 0.0
2017-Sep-18 01:59N 39°34' E 002°38'0 0.0
2017-Sep-18 01:29N 39°34' E 002°38'0 0.0
2017-Sep-18 00:59N 39°34' E 002°38'0 0.0
2017-Sep-18 00:29N 39°34' E 002°38'0 0.0
2017-Sep-17 23:59N 39°34' E 002°38'0 0.0
2017-Sep-17 23:29N 39°34' E 002°38'0 0.0
2017-Sep-17 23:00N 39°34' E 002°38'0 0.0
2017-Sep-17 22:29N 39°34' E 002°38'0 0.0
2017-Sep-17 21:59N 39°34' E 002°38'0 0.0
2017-Sep-17 21:30N 39°34' E 002°38'0 0.0
2017-Sep-17 21:00N 39°34' E 002°38'0 0.0
2017-Sep-17 20:30N 39°34' E 002°38'0 0.0
2017-Sep-17 20:00N 39°34' E 002°38'0 0.0
2017-Sep-17 19:29N 39°34' E 002°38'0 0.0
2017-Sep-17 18:59N 39°34' E 002°38'0 0.0
2017-Sep-17 18:29N 39°34' E 002°38'0 0.0
2017-Sep-17 17:59N 39°34' E 002°38'0 0.0
2017-Sep-17 17:29N 39°34' E 002°38'0 0.0
2017-Sep-17 16:59N 39°34' E 002°38'0 0.0
2017-Sep-17 16:30N 39°34' E 002°38'0 0.0
2017-Sep-17 15:59N 39°34' E 002°38'0 0.0
2017-Sep-17 15:29N 39°34' E 002°38'0 0.0
2017-Sep-17 14:59N 39°34' E 002°38'0 0.0
2017-Sep-17 14:29N 39°34' E 002°38'0 0.0
2017-Sep-17 13:59N 39°34' E 002°38'0 0.0
2017-Sep-17 13:29N 39°34' E 002°38'0 0.0
2017-Sep-17 12:59N 39°34' E 002°38'0 0.0
2017-Sep-17 12:29N 39°34' E 002°38'0 0.0
2017-Sep-17 11:59N 39°34' E 002°38'0 0.0
2017-Sep-17 11:29N 39°34' E 002°38'0 0.0
2017-Sep-17 10:59N 39°34' E 002°38'0 0.0
2017-Sep-17 10:29N 39°34' E 002°38'0 0.0
2017-Sep-17 09:59N 39°34' E 002°38'0 0.0
2017-Sep-17 09:29N 39°34' E 002°38'0 0.0
2017-Sep-17 08:59N 39°34' E 002°38'0 0.0
2017-Sep-17 08:29N 39°34' E 002°38'0 0.0
2017-Sep-17 08:00N 39°34' E 002°38'0 0.0
2017-Sep-17 07:29N 39°34' E 002°38'0 0.0
2017-Sep-17 06:59N 39°34' E 002°38'0 0.0
2017-Sep-17 06:29N 39°34' E 002°38'0 0.0
2017-Sep-17 05:56N 39°34' E 002°38'0 0.0
2017-Sep-17 05:29N 39°34' E 002°38'0 0.0
2017-Sep-17 04:59N 39°34' E 002°38'0 0.0
2017-Sep-17 04:29N 39°34' E 002°38'0 0.0
2017-Sep-17 03:59N 39°34' E 002°38'0 0.0
2017-Sep-17 03:29N 39°34' E 002°38'0 0.0
2017-Sep-17 02:59N 39°34' E 002°38'0 0.0
2017-Sep-17 02:29N 39°34' E 002°38'0 0.0
2017-Sep-17 01:59N 39°34' E 002°38'0 0.0
2017-Sep-17 01:29N 39°34' E 002°38'0 0.0
2017-Sep-17 00:59N 39°34' E 002°38'0 0.0
2017-Sep-17 00:29N 39°34' E 002°38'0 0.0
2017-Sep-16 23:59N 39°34' E 002°38'0 0.0
2017-Sep-16 23:29N 39°34' E 002°38'0 0.0
2017-Sep-16 22:59N 39°34' E 002°38'0 0.0
2017-Sep-16 22:29N 39°34' E 002°38'0 0.0
2017-Sep-16 21:59N 39°34' E 002°38'0 0.0
2017-Sep-16 21:29N 39°34' E 002°38'0 0.0
2017-Sep-16 20:59N 39°34' E 002°38'0 0.0
2017-Sep-16 20:29N 39°34' E 002°38'0 0.0
2017-Sep-16 19:59N 39°34' E 002°38'0 0.0
2017-Sep-16 19:29N 39°34' E 002°38'0 0.0
2017-Sep-16 18:59N 39°34' E 002°38'0 0.0
2017-Sep-16 18:29N 39°34' E 002°38'0 0.0
2017-Sep-16 17:59N 39°34' E 002°38'0 0.0
2017-Sep-16 17:29N 39°34' E 002°38'0 0.0
2017-Sep-16 16:59N 39°34' E 002°38'0 0.0
2017-Sep-16 16:29N 39°34' E 002°38'0 0.0
2017-Sep-16 15:59N 39°34' E 002°38'0 0.0
2017-Sep-16 15:29N 39°34' E 002°38'0 0.0
2017-Sep-16 14:59N 39°34' E 002°38'0 0.0
2017-Sep-16 14:29N 39°34' E 002°38'0 0.0
2017-Sep-16 13:59N 39°34' E 002°38'0 0.0
2017-Sep-16 13:29N 39°34' E 002°38'0 0.0
2017-Sep-16 12:59N 39°34' E 002°38'0 0.0
2017-Sep-16 12:29N 39°34' E 002°38'0 0.0
2017-Sep-16 11:59N 39°34' E 002°38'0 0.0
2017-Sep-16 11:29N 39°34' E 002°38'0 0.0
2017-Sep-16 10:59N 39°34' E 002°38'0 0.0
2017-Sep-16 10:29N 39°34' E 002°38'0 0.0
2017-Sep-16 09:59N 39°34' E 002°38'0 0.0
2017-Sep-16 09:29N 39°34' E 002°38'0 0.0
2017-Sep-16 08:59N 39°34' E 002°38'0 0.0
2017-Sep-16 08:29N 39°34' E 002°38'0 0.0
2017-Sep-16 07:59N 39°34' E 002°38'0 0.0
2017-Sep-16 07:29N 39°34' E 002°38'0 0.0
2017-Sep-16 06:59N 39°34' E 002°38'0 0.0
2017-Sep-16 06:29N 39°34' E 002°38'0 0.0
2017-Sep-16 05:59N 39°34' E 002°38'0 0.0
2017-Sep-16 05:29N 39°34' E 002°38'0 0.0
2017-Sep-16 04:59N 39°34' E 002°38'0 0.0
2017-Sep-16 04:29N 39°34' E 002°38'0 0.0
2017-Sep-16 03:53N 39°34' E 002°38'0 0.0
2017-Sep-16 03:29N 39°34' E 002°38'0 0.0
2017-Sep-16 02:59N 39°34' E 002°38'0 0.0
2017-Sep-16 02:29N 39°34' E 002°38'0 0.0
2017-Sep-16 01:59N 39°34' E 002°38'0 0.0
2017-Sep-16 01:29N 39°34' E 002°38'0 0.0
2017-Sep-16 00:59N 39°34' E 002°38'0 0.0
2017-Sep-16 00:29N 39°34' E 002°38'0 0.0
2017-Sep-15 23:59N 39°34' E 002°38'0 0.0
2017-Sep-15 23:29N 39°34' E 002°38'0 0.0
2017-Sep-15 22:59N 39°34' E 002°38'0 0.0
2017-Sep-15 22:29N 39°34' E 002°38'0 0.0
2017-Sep-15 21:59N 39°34' E 002°38'0 0.0
2017-Sep-15 21:29N 39°34' E 002°38'0 0.0
2017-Sep-15 20:59N 39°34' E 002°38'0 0.0
2017-Sep-15 20:29N 39°34' E 002°38'0 0.0
2017-Sep-15 19:59N 39°34' E 002°38'0 0.0
2017-Sep-15 19:29N 39°34' E 002°38'0 0.0
2017-Sep-15 18:59N 39°34' E 002°38'0 0.0
2017-Sep-15 18:26N 39°34' E 002°38'0 0.0
2017-Sep-15 17:59N 39°34' E 002°38'0 0.0
2017-Sep-15 17:29N 39°34' E 002°38'0 0.0
2017-Sep-15 16:59N 39°34' E 002°38'0 0.0
2017-Sep-15 16:29N 39°34' E 002°38'0 0.0
2017-Sep-15 15:59N 39°34' E 002°38'0 0.0
2017-Sep-15 15:29N 39°34' E 002°38'0 0.0
2017-Sep-15 14:59N 39°34' E 002°38'0 0.0
2017-Sep-15 14:29N 39°34' E 002°38'0 0.0
2017-Sep-15 13:59N 39°34' E 002°38'0 0.0
2017-Sep-15 13:29N 39°34' E 002°38'0 0.0
2017-Sep-15 12:59N 39°34' E 002°38'0 0.0
2017-Sep-15 12:29N 39°34' E 002°38'0 0.0
2017-Sep-15 11:56N 39°34' E 002°38'0 0.0
2017-Sep-15 11:29N 39°34' E 002°38'0 0.0
2017-Sep-15 10:59N 39°34' E 002°38'0 0.0
2017-Sep-15 10:29N 39°34' E 002°38'0 0.0
2017-Sep-15 09:59N 39°34' E 002°38'0 0.0
2017-Sep-15 09:29N 39°34' E 002°38'0 0.0
2017-Sep-15 08:59N 39°34' E 002°38'0 0.0
2017-Sep-15 08:29N 39°34' E 002°38'0 0.0
2017-Sep-15 07:59N 39°34' E 002°38'0 0.0
2017-Sep-15 07:29N 39°34' E 002°38'0 0.0
2017-Sep-15 06:59N 39°34' E 002°38'0 0.0
2017-Sep-15 06:29N 39°34' E 002°38'0 0.0
2017-Sep-15 05:59N 39°34' E 002°38'0 0.0
2017-Sep-15 05:29N 39°34' E 002°38'0 0.0
2017-Sep-15 04:59N 39°34' E 002°38'0 0.0
2017-Sep-15 04:29N 39°34' E 002°38'0 0.0
2017-Sep-15 03:59N 39°34' E 002°38'0 0.0
2017-Sep-15 03:29N 39°34' E 002°38'0 0.0
2017-Sep-15 02:59N 39°34' E 002°38'0 0.0
2017-Sep-15 02:29N 39°34' E 002°38'0 0.0
2017-Sep-15 01:59N 39°34' E 002°38'0 0.0
2017-Sep-15 01:29N 39°34' E 002°38'0 0.0
2017-Sep-15 00:59N 39°34' E 002°38'0 0.0
2017-Sep-15 00:29N 39°34' E 002°38'0 0.0
2017-Sep-14 23:59N 39°34' E 002°38'0 0.0
2017-Sep-14 23:29N 39°34' E 002°38'0 0.0
2017-Sep-14 22:59N 39°34' E 002°38'0 0.0
2017-Sep-14 22:29N 39°34' E 002°38'0 0.0
2017-Sep-14 21:59N 39°34' E 002°38'0 0.0
2017-Sep-14 21:29N 39°34' E 002°38'0 0.0
2017-Sep-14 20:59N 39°34' E 002°38'0 0.0
2017-Sep-14 20:29N 39°34' E 002°38'0 0.0
2017-Sep-14 19:59N 39°34' E 002°38'0 0.0
2017-Sep-14 19:29N 39°34' E 002°38'0 0.0
2017-Sep-14 18:56N 39°34' E 002°38'0 0.0
2017-Sep-14 18:29N 39°34' E 002°38'0 0.0
2017-Sep-14 17:59N 39°34' E 002°38'0 0.0
2017-Sep-14 17:23N 39°34' E 002°38'0 0.0
2017-Sep-14 16:59N 39°34' E 002°38'0 0.0
2017-Sep-14 16:29N 39°34' E 002°38'0 0.0
2017-Sep-14 15:59N 39°34' E 002°38'0 0.0
2017-Sep-14 15:29N 39°34' E 002°38'0 0.0
2017-Sep-14 14:59N 39°34' E 002°38'0 0.0
2017-Sep-14 14:29N 39°34' E 002°38'0 0.0
2017-Sep-14 13:59N 39°34' E 002°38'0 0.0
2017-Sep-14 13:29N 39°34' E 002°38'0 0.0
2017-Sep-14 12:59N 39°34' E 002°38'0 0.0
2017-Sep-14 12:29N 39°34' E 002°38'0 0.0
2017-Sep-14 11:59N 39°34' E 002°38'0 0.0
2017-Sep-14 11:29N 39°34' E 002°38'0 0.0
2017-Sep-14 10:59N 39°34' E 002°38'0 0.0
2017-Sep-14 10:29N 39°34' E 002°38'0 0.0
2017-Sep-14 09:59N 39°34' E 002°38'0 0.0
2017-Sep-14 09:29N 39°34' E 002°38'0 0.0
2017-Sep-14 08:59N 39°34' E 002°38'0 0.0
2017-Sep-14 08:29N 39°34' E 002°38'0 0.0
2017-Sep-14 07:59N 39°34' E 002°38'0 0.0
2017-Sep-14 07:29N 39°34' E 002°38'0 0.0
2017-Sep-14 06:59N 39°34' E 002°38'0 0.0
2017-Sep-14 06:29N 39°34' E 002°38'0 0.0
2017-Sep-14 05:59N 39°34' E 002°38'0 0.0
2017-Sep-14 05:29N 39°34' E 002°38'0 0.0
2017-Sep-14 04:59N 39°34' E 002°38'0 0.0
2017-Sep-14 04:26N 39°34' E 002°38'0 0.0
2017-Sep-14 03:59N 39°34' E 002°38'0 0.0
2017-Sep-14 03:23N 39°34' E 002°38'0 0.0
2017-Sep-14 02:59N 39°34' E 002°38'0 0.0
2017-Sep-14 02:29N 39°34' E 002°38'0 0.0
2017-Sep-14 01:59N 39°34' E 002°38'0 0.0
2017-Sep-14 01:29N 39°34' E 002°38'0 0.0
2017-Sep-14 00:59N 39°34' E 002°38'0 0.0
2017-Sep-14 00:29N 39°34' E 002°38'0 0.0
2017-Sep-13 23:59N 39°34' E 002°38'0 0.0
2017-Sep-13 23:29N 39°34' E 002°38'0 0.0
2017-Sep-13 22:59N 39°34' E 002°38'0 0.0
2017-Sep-13 22:29N 39°34' E 002°38'0 0.0
2017-Sep-13 21:59N 39°34' E 002°38'0 0.0
2017-Sep-13 21:29N 39°34' E 002°38'0 0.0
2017-Sep-13 20:56N 39°34' E 002°38'0 0.0
2017-Sep-13 20:29N 39°34' E 002°38'0 0.0
2017-Sep-13 19:59N 39°34' E 002°38'0 0.0
2017-Sep-13 19:29N 39°34' E 002°38'0 0.0
2017-Sep-13 18:53N 39°34' E 002°38'0 0.0
2017-Sep-13 18:29N 39°34' E 002°38'0 0.0
2017-Sep-13 17:59N 39°34' E 002°38'0 0.0
2017-Sep-13 17:29N 39°34' E 002°38'0 0.0
2017-Sep-13 16:59N 39°34' E 002°38'0 0.0
2017-Sep-13 16:29N 39°34' E 002°38'0 0.0
2017-Sep-13 15:59N 39°34' E 002°38'0 0.0
2017-Sep-13 15:29N 39°34' E 002°38'0 0.0
2017-Sep-13 15:01N 39°34' E 002°38'1 2.8
2017-Sep-13 14:30N 39°33' E 002°40'1 2.6
2017-Sep-13 13:58N 39°34' E 002°38'0 0.0
2017-Sep-13 13:28N 39°34' E 002°38'0 0.0
2017-Sep-13 12:58N 39°34' E 002°38'0 0.0
2017-Sep-13 12:28N 39°34' E 002°38'0 0.0
2017-Sep-13 11:58N 39°34' E 002°38'0 0.0
2017-Sep-13 11:28N 39°34' E 002°38'0 0.0
2017-Sep-13 10:58N 39°34' E 002°38'0 0.0
2017-Sep-13 10:28N 39°34' E 002°38'0 0.0
2017-Sep-13 09:58N 39°34' E 002°38'0 0.0
2017-Sep-13 09:28N 39°34' E 002°38'0 0.0
2017-Sep-13 08:58N 39°34' E 002°38'0 0.0
2017-Sep-13 08:28N 39°34' E 002°38'0 0.0
2017-Sep-13 07:58N 39°34' E 002°38'0 0.0
2017-Sep-13 07:28N 39°34' E 002°38'0 0.0
2017-Sep-13 06:58N 39°34' E 002°38'0 0.0
2017-Sep-13 06:28N 39°34' E 002°38'0 0.0
2017-Sep-13 05:58N 39°34' E 002°38'0 0.0
2017-Sep-13 05:28N 39°34' E 002°38'0 0.0
2017-Sep-13 04:58N 39°34' E 002°38'0 0.0
2017-Sep-13 04:25N 39°34' E 002°38'0 0.0
2017-Sep-13 03:58N 39°34' E 002°38'0 0.0
2017-Sep-13 03:28N 39°34' E 002°38'0 0.0
2017-Sep-13 02:58N 39°34' E 002°38'0 0.0
2017-Sep-13 02:28N 39°34' E 002°38'0 0.0
2017-Sep-13 01:58N 39°34' E 002°38'0 0.0
2017-Sep-13 01:28N 39°34' E 002°38'0 0.0
2017-Sep-13 00:58N 39°34' E 002°38'0 0.0
2017-Sep-13 00:28N 39°34' E 002°38'0 0.0
2017-Sep-12 23:58N 39°34' E 002°38'0 0.0
2017-Sep-12 23:28N 39°34' E 002°38'0 0.0
2017-Sep-12 22:58N 39°34' E 002°38'0 0.0
2017-Sep-12 22:28N 39°34' E 002°38'0 0.0
2017-Sep-12 21:58N 39°34' E 002°38'0 0.0
2017-Sep-12 21:28N 39°34' E 002°38'0 0.0
2017-Sep-12 20:58N 39°34' E 002°38'0 0.0
2017-Sep-12 20:28N 39°34' E 002°38'0 0.0
2017-Sep-12 19:58N 39°34' E 002°38'0 0.0
2017-Sep-12 19:28N 39°34' E 002°38'0 0.0
2017-Sep-12 18:58N 39°34' E 002°38'0 0.0
2017-Sep-12 18:28N 39°34' E 002°38'0 0.0
2017-Sep-12 17:58N 39°34' E 002°38'0 0.0
2017-Sep-12 17:28N 39°34' E 002°38'0 0.0
2017-Sep-12 17:00N 39°34' E 002°38'0 0.0
2017-Sep-12 16:30N 39°34' E 002°38'0 0.0
2017-Sep-12 16:00N 39°34' E 002°38'1 2.8
2017-Sep-12 15:30N 39°32' E 002°39'1 2.1
2017-Sep-12 15:00N 39°31' E 002°39'0 0.4
2017-Sep-12 14:31N 39°32' E 002°39'0 0.7
2017-Sep-12 14:00N 39°32' E 002°39'0 0.5
2017-Sep-12 13:30N 39°32' E 002°40'2 4.3
2017-Sep-12 12:59N 39°34' E 002°38'0 0.0
2017-Sep-12 12:29N 39°34' E 002°38'0 0.0
2017-Sep-12 11:59N 39°34' E 002°38'0 0.0
2017-Sep-12 11:29N 39°34' E 002°38'0 0.0
2017-Sep-12 10:59N 39°34' E 002°38'0 0.0
2017-Sep-12 10:29N 39°34' E 002°38'0 0.0
2017-Sep-12 09:59N 39°34' E 002°38'0 0.0
2017-Sep-12 09:29N 39°34' E 002°38'0 0.0
2017-Sep-12 08:59N 39°34' E 002°38'0 0.0
2017-Sep-12 08:29N 39°34' E 002°38'0 0.0
2017-Sep-12 07:59N 39°34' E 002°38'0 0.0
2017-Sep-12 07:29N 39°34' E 002°38'0 0.0
2017-Sep-12 06:59N 39°34' E 002°38'0 0.0
2017-Sep-12 06:29N 39°34' E 002°38'0 0.0
2017-Sep-12 05:59N 39°34' E 002°38'0 0.0
2017-Sep-12 05:29N 39°34' E 002°38'0 0.0
2017-Sep-12 04:56N 39°34' E 002°38'0 0.0
2017-Sep-12 04:29N 39°34' E 002°38'0 0.0
2017-Sep-12 03:59N 39°34' E 002°38'0 0.0
2017-Sep-12 03:29N 39°34' E 002°38'0 0.0
2017-Sep-12 02:59N 39°34' E 002°38'0 0.0
2017-Sep-12 02:29N 39°34' E 002°38'0 0.0
2017-Sep-12 01:59N 39°34' E 002°38'0 0.0
2017-Sep-12 01:29N 39°34' E 002°38'0 0.0
2017-Sep-12 00:56N 39°34' E 002°38'0 0.0
2017-Sep-12 00:29N 39°34' E 002°38'0 0.0
2017-Sep-11 23:59N 39°34' E 002°38'0 0.0
2017-Sep-11 23:29N 39°34' E 002°38'0 0.0
2017-Sep-11 22:59N 39°34' E 002°38'0 0.0
2017-Sep-11 22:29N 39°34' E 002°38'0 0.0
2017-Sep-11 21:59N 39°34' E 002°38'0 0.0
2017-Sep-11 21:29N 39°34' E 002°38'0 0.0
2017-Sep-11 20:59N 39°34' E 002°38'0 0.0
2017-Sep-11 20:29N 39°34' E 002°38'0 0.0
2017-Sep-11 19:59N 39°34' E 002°38'0 0.0
2017-Sep-11 19:29N 39°34' E 002°38'0 0.0
2017-Sep-11 18:59N 39°34' E 002°38'0 0.0
2017-Sep-11 18:29N 39°34' E 002°38'0 0.0
2017-Sep-11 17:59N 39°34' E 002°38'0 0.0
2017-Sep-11 17:29N 39°34' E 002°38'0 0.0
2017-Sep-11 16:53N 39°34' E 002°38'0 0.0
2017-Sep-11 16:29N 39°34' E 002°38'0 0.0
2017-Sep-11 15:59N 39°34' E 002°38'0 0.0
2017-Sep-11 15:29N 39°34' E 002°38'0 0.0
2017-Sep-11 14:59N 39°34' E 002°38'0 0.0
2017-Sep-11 14:29N 39°34' E 002°38'0 0.0
2017-Sep-11 13:59N 39°34' E 002°38'0 0.0
2017-Sep-11 13:23N 39°34' E 002°38'0 0.0
2017-Sep-11 12:59N 39°34' E 002°38'0 0.0
2017-Sep-11 12:29N 39°34' E 002°38'0 0.0
2017-Sep-11 11:59N 39°34' E 002°38'0 0.0
2017-Sep-11 11:29N 39°34' E 002°38'0 0.0
2017-Sep-11 10:59N 39°34' E 002°38'0 0.0
2017-Sep-11 10:29N 39°34' E 002°38'0 0.0
2017-Sep-11 09:59N 39°34' E 002°38'0 0.0
2017-Sep-11 09:29N 39°34' E 002°38'0 0.0
2017-Sep-11 08:59N 39°34' E 002°38'0 0.0
2017-Sep-11 08:29N 39°34' E 002°38'0 0.0
2017-Sep-11 07:59N 39°34' E 002°38'0 0.0
2017-Sep-11 07:29N 39°34' E 002°38'0 0.0
2017-Sep-11 06:59N 39°34' E 002°38'0 0.0
2017-Sep-11 06:29N 39°34' E 002°38'0 0.0
2017-Sep-11 05:59N 39°34' E 002°38'0 0.0
2017-Sep-11 05:29N 39°34' E 002°38'0 0.0
2017-Sep-11 04:59N 39°34' E 002°38'0 0.0
2017-Sep-11 04:29N 39°34' E 002°38'0 0.0
2017-Sep-11 03:59N 39°34' E 002°38'0 0.0
2017-Sep-11 03:29N 39°34' E 002°38'0 0.0
2017-Sep-11 02:59N 39°34' E 002°38'0 0.0
2017-Sep-11 02:29N 39°34' E 002°38'0 0.0
2017-Sep-11 01:56N 39°34' E 002°38'0 0.0
2017-Sep-11 01:29N 39°34' E 002°38'0 0.0
2017-Sep-11 00:59N 39°34' E 002°38'0 0.0
2017-Sep-11 00:29N 39°34' E 002°38'0 0.0
2017-Sep-10 23:59N 39°34' E 002°38'0 0.0
2017-Sep-10 23:29N 39°34' E 002°38'0 0.0
2017-Sep-10 22:59N 39°34' E 002°38'0 0.0
2017-Sep-10 22:29N 39°34' E 002°38'0 0.0
2017-Sep-10 21:59N 39°34' E 002°38'0 0.0
2017-Sep-10 21:29N 39°34' E 002°38'0 0.0
2017-Sep-10 20:59N 39°34' E 002°38'0 0.0
2017-Sep-10 20:29N 39°34' E 002°38'0 0.0
2017-Sep-10 19:59N 39°34' E 002°38'0 0.0
2017-Sep-10 19:29N 39°34' E 002°38'0 0.0
2017-Sep-10 18:59N 39°34' E 002°38'0 0.0
2017-Sep-10 18:29N 39°34' E 002°38'0 0.0
2017-Sep-10 17:59N 39°34' E 002°38'0 0.0
2017-Sep-10 17:29N 39°34' E 002°38'0 0.0
2017-Sep-10 16:59N 39°34' E 002°38'0 0.0
2017-Sep-10 16:29N 39°34' E 002°38'0 0.0
2017-Sep-10 15:59N 39°34' E 002°38'0 0.0
2017-Sep-10 15:29N 39°34' E 002°38'  
Track history (hours):
 
Tides and Currents Weather Stations Pressure Air Temp Water Temp Dewpoint Dewpoint Depression Visibility Wind Speed Wind Dir Waves Ship Positions

Benchi Express

Last reported at 2017-Sep-20 15:20 UTC. Time now 2017-Sep-21 08:58 UTC.
Position N 40°44' E 001°23'.

Length 38 m; draft 1.6 m.

Type: Ship. MMSI: 225400000.

Date/timePositionNaut miles runAvg speedWind from/ knotsBaromVisibWave heightAir tempDewpointWater temp
2017-Sep-20 15:20N 40°44' E 001°23'18 0.5
2017-Sep-19 06:29N 40°27' E 001°13'3 6.7
2017-Sep-19 05:59N 40°28' E 001°18'3 5.8
2017-Sep-19 05:30N 40°28' E 001°21'3 5.1
2017-Sep-19 05:00N 40°29' E 001°24'2 3.5
2017-Sep-19 04:30N 40°28' E 001°27'3 5.0
2017-Sep-19 04:00N 40°29' E 001°30'3 5.6
2017-Sep-19 03:30N 40°27' E 001°33'510.7
2017-Sep-19 03:01N 40°23' E 001°37'611.6
2017-Sep-19 02:30N 40°18' E 001°41'611.6
2017-Sep-19 02:00N 40°13' E 001°46'510.2
2017-Sep-19 01:30N 40°09' E 001°49'611.5
2017-Sep-19 01:00N 40°03' E 001°52'510.4
2017-Sep-19 00:30N 39°59' E 001°56'612.0
2017-Sep-19 00:00N 39°54' E 002°00'713.5
2017-Sep-18 23:30N 39°48' E 002°04'713.2
2017-Sep-18 22:58N 39°42' E 002°09'613.1
2017-Sep-18 22:30N 39°37' E 002°13'712.6
2017-Sep-18 21:58N 39°31' E 002°18'612.4
2017-Sep-18 21:30N 39°28' E 002°25'611.8
2017-Sep-18 21:00N 39°27' E 002°32'611.5
2017-Sep-18 20:30N 39°31' E 002°37'3 6.2
2017-Sep-18 20:00N 39°34' E 002°38'0 0.0
2017-Sep-18 19:30N 39°34' E 002°38'0 0.0
2017-Sep-18 19:00N 39°34' E 002°38'0 0.0
2017-Sep-18 18:30N 39°34' E 002°38'0 0.0
2017-Sep-18 18:00N 39°34' E 002°38'0 0.0
2017-Sep-18 17:30N 39°34' E 002°38'0 0.0
2017-Sep-18 17:00N 39°34' E 002°38'0 0.0
2017-Sep-18 16:30N 39°34' E 002°38'0 0.0
2017-Sep-18 16:00N 39°34' E 002°38'0 0.0
2017-Sep-18 15:30N 39°34' E 002°38'0 0.0
2017-Sep-18 15:00N 39°34' E 002°38'0 0.0
2017-Sep-18 14:30N 39°34' E 002°38'0 0.0
2017-Sep-18 14:00N 39°34' E 002°38'0 0.0
2017-Sep-18 13:30N 39°34' E 002°38'0 0.0
2017-Sep-18 13:00N 39°34' E 002°38'0 0.0
2017-Sep-18 12:30N 39°34' E 002°38'0 0.0
2017-Sep-18 12:00N 39°34' E 002°38'0 0.0
2017-Sep-18 11:27N 39°34' E 002°38'0 0.0
2017-Sep-18 10:57N 39°34' E 002°38'0 0.0
2017-Sep-18 10:30N 39°34' E 002°38'0 0.0
2017-Sep-18 10:00N 39°34' E 002°38'0 0.0
2017-Sep-18 09:30N 39°34' E 002°38'0 0.0
2017-Sep-18 09:00N 39°34' E 002°38'0 0.0
2017-Sep-18 08:30N 39°34' E 002°38'0 0.3
2017-Sep-18 08:00N 39°34' E 002°38'0 0.3
2017-Sep-18 07:30N 39°34' E 002°38'0 0.0
2017-Sep-18 07:00N 39°34' E 002°38'0 0.1
2017-Sep-18 06:30N 39°34' E 002°38'0 0.1
2017-Sep-18 06:00N 39°34' E 002°38'0 0.6
2017-Sep-18 05:30N 39°34' E 002°38'0 0.0
2017-Sep-18 05:00N 39°34' E 002°38'0 0.0
2017-Sep-18 04:29N 39°34' E 002°38'0 0.0
2017-Sep-18 03:59N 39°34' E 002°38'0 0.0
2017-Sep-18 03:30N 39°34' E 002°38'0 0.0
2017-Sep-18 02:59N 39°34' E 002°38'0 0.0
2017-Sep-18 02:29N 39°34' E 002°38'0 0.0
2017-Sep-18 01:59N 39°34' E 002°38'0 0.0
2017-Sep-18 01:29N 39°34' E 002°38'0 0.0
2017-Sep-18 00:59N 39°34' E 002°38'0 0.0
2017-Sep-18 00:29N 39°34' E 002°38'0 0.0
2017-Sep-17 23:59N 39°34' E 002°38'0 0.0
2017-Sep-17 23:29N 39°34' E 002°38'0 0.0
2017-Sep-17 23:00N 39°34' E 002°38'0 0.0
2017-Sep-17 22:29N 39°34' E 002°38'0 0.0
2017-Sep-17 21:59N 39°34' E 002°38'0 0.0
2017-Sep-17 21:30N 39°34' E 002°38'0 0.0
2017-Sep-17 21:00N 39°34' E 002°38'0 0.0
2017-Sep-17 20:30N 39°34' E 002°38'0 0.0
2017-Sep-17 20:00N 39°34' E 002°38'0 0.0
2017-Sep-17 19:29N 39°34' E 002°38'0 0.0
2017-Sep-17 18:59N 39°34' E 002°38'0 0.0
2017-Sep-17 18:29N 39°34' E 002°38'0 0.0
2017-Sep-17 17:59N 39°34' E 002°38'0 0.0
2017-Sep-17 17:29N 39°34' E 002°38'0 0.0
2017-Sep-17 16:59N 39°34' E 002°38'0 0.0
2017-Sep-17 16:30N 39°34' E 002°38'0 0.0
2017-Sep-17 15:59N 39°34' E 002°38'0 0.0
2017-Sep-17 15:29N 39°34' E 002°38'0 0.0
2017-Sep-17 14:59N 39°34' E 002°38'0 0.0
2017-Sep-17 14:29N 39°34' E 002°38'0 0.0
2017-Sep-17 13:59N 39°34' E 002°38'0 0.0
2017-Sep-17 13:29N 39°34' E 002°38'0 0.0
2017-Sep-17 12:59N 39°34' E 002°38'0 0.0
2017-Sep-17 12:29N 39°34' E 002°38'0 0.0
2017-Sep-17 11:59N 39°34' E 002°38'0 0.0
2017-Sep-17 11:29N 39°34' E 002°38'0 0.0
2017-Sep-17 10:59N 39°34' E 002°38'0 0.0
2017-Sep-17 10:29N 39°34' E 002°38'0 0.0
2017-Sep-17 09:59N 39°34' E 002°38'0 0.0
2017-Sep-17 09:29N 39°34' E 002°38'0 0.0
2017-Sep-17 08:59N 39°34' E 002°38'0 0.0
2017-Sep-17 08:29N 39°34' E 002°38'0 0.0
2017-Sep-17 08:00N 39°34' E 002°38'0 0.0
2017-Sep-17 07:29N 39°34' E 002°38'0 0.0
2017-Sep-17 06:59N 39°34' E 002°38'0 0.0
2017-Sep-17 06:29N 39°34' E 002°38'0 0.0
2017-Sep-17 05:56N 39°34' E 002°38'0 0.0
2017-Sep-17 05:29N 39°34' E 002°38'0 0.0
2017-Sep-17 04:59N 39°34' E 002°38'0 0.0
2017-Sep-17 04:29N 39°34' E 002°38'0 0.0
2017-Sep-17 03:59N 39°34' E 002°38'0 0.0
2017-Sep-17 03:29N 39°34' E 002°38'0 0.0
2017-Sep-17 02:59N 39°34' E 002°38'0 0.0
2017-Sep-17 02:29N 39°34' E 002°38'0 0.0
2017-Sep-17 01:59N 39°34' E 002°38'0 0.0
2017-Sep-17 01:29N 39°34' E 002°38'0 0.0
2017-Sep-17 00:59N 39°34' E 002°38'0 0.0
2017-Sep-17 00:29N 39°34' E 002°38'0 0.0
2017-Sep-16 23:59N 39°34' E 002°38'0 0.0
2017-Sep-16 23:29N 39°34' E 002°38'0 0.0
2017-Sep-16 22:59N 39°34' E 002°38'0 0.0
2017-Sep-16 22:29N 39°34' E 002°38'0 0.0
2017-Sep-16 21:59N 39°34' E 002°38'0 0.0
2017-Sep-16 21:29N 39°34' E 002°38'0 0.0
2017-Sep-16 20:59N 39°34' E 002°38'0 0.0
2017-Sep-16 20:29N 39°34' E 002°38'0 0.0
2017-Sep-16 19:59N 39°34' E 002°38'0 0.0
2017-Sep-16 19:29N 39°34' E 002°38'0 0.0
2017-Sep-16 18:59N 39°34' E 002°38'0 0.0
2017-Sep-16 18:29N 39°34' E 002°38'0 0.0
2017-Sep-16 17:59N 39°34' E 002°38'0 0.0
2017-Sep-16 17:29N 39°34' E 002°38'0 0.0
2017-Sep-16 16:59N 39°34' E 002°38'0 0.0
2017-Sep-16 16:29N 39°34' E 002°38'0 0.0
2017-Sep-16 15:59N 39°34' E 002°38'0 0.0
2017-Sep-16 15:29N 39°34' E 002°38'0 0.0
2017-Sep-16 14:59N 39°34' E 002°38'0 0.0
2017-Sep-16 14:29N 39°34' E 002°38'0 0.0
2017-Sep-16 13:59N 39°34' E 002°38'0 0.0
2017-Sep-16 13:29N 39°34' E 002°38'0 0.0
2017-Sep-16 12:59N 39°34' E 002°38'0 0.0
2017-Sep-16 12:29N 39°34' E 002°38'0 0.0
2017-Sep-16 11:59N 39°34' E 002°38'0 0.0
2017-Sep-16 11:29N 39°34' E 002°38'0 0.0
2017-Sep-16 10:59N 39°34' E 002°38'0 0.0
2017-Sep-16 10:29N 39°34' E 002°38'0 0.0
2017-Sep-16 09:59N 39°34' E 002°38'0 0.0
2017-Sep-16 09:29N 39°34' E 002°38'0 0.0
2017-Sep-16 08:59N 39°34' E 002°38'0 0.0
2017-Sep-16 08:29N 39°34' E 002°38'0 0.0
2017-Sep-16 07:59N 39°34' E 002°38'0 0.0
2017-Sep-16 07:29N 39°34' E 002°38'0 0.0
2017-Sep-16 06:59N 39°34' E 002°38'0 0.0
2017-Sep-16 06:29N 39°34' E 002°38'0 0.0
2017-Sep-16 05:59N 39°34' E 002°38'0 0.0
2017-Sep-16 05:29N 39°34' E 002°38'0 0.0
2017-Sep-16 04:59N 39°34' E 002°38'0 0.0
2017-Sep-16 04:29N 39°34' E 002°38'0 0.0
2017-Sep-16 03:53N 39°34' E 002°38'0 0.0
2017-Sep-16 03:29N 39°34' E 002°38'0 0.0
2017-Sep-16 02:59N 39°34' E 002°38'0 0.0
2017-Sep-16 02:29N 39°34' E 002°38'0 0.0
2017-Sep-16 01:59N 39°34' E 002°38'0 0.0
2017-Sep-16 01:29N 39°34' E 002°38'0 0.0
2017-Sep-16 00:59N 39°34' E 002°38'0 0.0
2017-Sep-16 00:29N 39°34' E 002°38'0 0.0
2017-Sep-15 23:59N 39°34' E 002°38'0 0.0
2017-Sep-15 23:29N 39°34' E 002°38'0 0.0
2017-Sep-15 22:59N 39°34' E 002°38'0 0.0
2017-Sep-15 22:29N 39°34' E 002°38'0 0.0
2017-Sep-15 21:59N 39°34' E 002°38'0 0.0
2017-Sep-15 21:29N 39°34' E 002°38'0 0.0
2017-Sep-15 20:59N 39°34' E 002°38'0 0.0
2017-Sep-15 20:29N 39°34' E 002°38'0 0.0
2017-Sep-15 19:59N 39°34' E 002°38'0 0.0
2017-Sep-15 19:29N 39°34' E 002°38'0 0.0
2017-Sep-15 18:59N 39°34' E 002°38'0 0.0
2017-Sep-15 18:26N 39°34' E 002°38'0 0.0
2017-Sep-15 17:59N 39°34' E 002°38'0 0.0
2017-Sep-15 17:29N 39°34' E 002°38'0 0.0
2017-Sep-15 16:59N 39°34' E 002°38'0 0.0
2017-Sep-15 16:29N 39°34' E 002°38'0 0.0
2017-Sep-15 15:59N 39°34' E 002°38'0 0.0
2017-Sep-15 15:29N 39°34' E 002°38'0 0.0
2017-Sep-15 14:59N 39°34' E 002°38'0 0.0
2017-Sep-15 14:29N 39°34' E 002°38'0 0.0
2017-Sep-15 13:59N 39°34' E 002°38'0 0.0
2017-Sep-15 13:29N 39°34' E 002°38'0 0.0
2017-Sep-15 12:59N 39°34' E 002°38'0 0.0
2017-Sep-15 12:29N 39°34' E 002°38'0 0.0
2017-Sep-15 11:56N 39°34' E 002°38'0 0.0
2017-Sep-15 11:29N 39°34' E 002°38'0 0.0
2017-Sep-15 10:59N 39°34' E 002°38'0 0.0
2017-Sep-15 10:29N 39°34' E 002°38'0 0.0
2017-Sep-15 09:59N 39°34' E 002°38'0 0.0
2017-Sep-15 09:29N 39°34' E 002°38'0 0.0
2017-Sep-15 08:59N 39°34' E 002°38'0 0.0
2017-Sep-15 08:29N 39°34' E 002°38'0 0.0
2017-Sep-15 07:59N 39°34' E 002°38'0 0.0
2017-Sep-15 07:29N 39°34' E 002°38'0 0.0
2017-Sep-15 06:59N 39°34' E 002°38'0 0.0
2017-Sep-15 06:29N 39°34' E 002°38'0 0.0
2017-Sep-15 05:59N 39°34' E 002°38'0 0.0
2017-Sep-15 05:29N 39°34' E 002°38'0 0.0
2017-Sep-15 04:59N 39°34' E 002°38'0 0.0
2017-Sep-15 04:29N 39°34' E 002°38'0 0.0
2017-Sep-15 03:59N 39°34' E 002°38'0 0.0
2017-Sep-15 03:29N 39°34' E 002°38'0 0.0
2017-Sep-15 02:59N 39°34' E 002°38'0 0.0
2017-Sep-15 02:29N 39°34' E 002°38'0 0.0
2017-Sep-15 01:59N 39°34' E 002°38'0 0.0
2017-Sep-15 01:29N 39°34' E 002°38'0 0.0
2017-Sep-15 00:59N 39°34' E 002°38'0 0.0
2017-Sep-15 00:29N 39°34' E 002°38'0 0.0
2017-Sep-14 23:59N 39°34' E 002°38'0 0.0
2017-Sep-14 23:29N 39°34' E 002°38'0 0.0
2017-Sep-14 22:59N 39°34' E 002°38'0 0.0
2017-Sep-14 22:29N 39°34' E 002°38'0 0.0
2017-Sep-14 21:59N 39°34' E 002°38'0 0.0
2017-Sep-14 21:29N 39°34' E 002°38'0 0.0
2017-Sep-14 20:59N 39°34' E 002°38'0 0.0
2017-Sep-14 20:29N 39°34' E 002°38'0 0.0
2017-Sep-14 19:59N 39°34' E 002°38'0 0.0
2017-Sep-14 19:29N 39°34' E 002°38'0 0.0
2017-Sep-14 18:56N 39°34' E 002°38'0 0.0
2017-Sep-14 18:29N 39°34' E 002°38'0 0.0
2017-Sep-14 17:59N 39°34' E 002°38'0 0.0
2017-Sep-14 17:23N 39°34' E 002°38'0 0.0
2017-Sep-14 16:59N 39°34' E 002°38'0 0.0
2017-Sep-14 16:29N 39°34' E 002°38'0 0.0
2017-Sep-14 15:59N 39°34' E 002°38'0 0.0
2017-Sep-14 15:29N 39°34' E 002°38'0 0.0
2017-Sep-14 14:59N 39°34' E 002°38'0 0.0
2017-Sep-14 14:29N 39°34' E 002°38'0 0.0
2017-Sep-14 13:59N 39°34' E 002°38'0 0.0
2017-Sep-14 13:29N 39°34' E 002°38'0 0.0
2017-Sep-14 12:59N 39°34' E 002°38'0 0.0
2017-Sep-14 12:29N 39°34' E 002°38'0 0.0
2017-Sep-14 11:59N 39°34' E 002°38'0 0.0
2017-Sep-14 11:29N 39°34' E 002°38'0 0.0
2017-Sep-14 10:59N 39°34' E 002°38'0 0.0
2017-Sep-14 10:29N 39°34' E 002°38'0 0.0
2017-Sep-14 09:59N 39°34' E 002°38'0 0.0
2017-Sep-14 09:29N 39°34' E 002°38'0 0.0
2017-Sep-14 08:59N 39°34' E 002°38'0 0.0
2017-Sep-14 08:29N 39°34' E 002°38'0 0.0
2017-Sep-14 07:59N 39°34' E 002°38'0 0.0
2017-Sep-14 07:29N 39°34' E 002°38'0 0.0
2017-Sep-14 06:59N 39°34' E 002°38'0 0.0
2017-Sep-14 06:29N 39°34' E 002°38'0 0.0
2017-Sep-14 05:59N 39°34' E 002°38'0 0.0
2017-Sep-14 05:29N 39°34' E 002°38'0 0.0
2017-Sep-14 04:59N 39°34' E 002°38'0 0.0
2017-Sep-14 04:26N 39°34' E 002°38'0 0.0
2017-Sep-14 03:59N 39°34' E 002°38'0 0.0
2017-Sep-14 03:23N 39°34' E 002°38'0 0.0
2017-Sep-14 02:59N 39°34' E 002°38'0 0.0
2017-Sep-14 02:29N 39°34' E 002°38'0 0.0
2017-Sep-14 01:59N 39°34' E 002°38'0 0.0
2017-Sep-14 01:29N 39°34' E 002°38'0 0.0
2017-Sep-14 00:59N 39°34' E 002°38'0 0.0
2017-Sep-14 00:29N 39°34' E 002°38'0 0.0
2017-Sep-13 23:59N 39°34' E 002°38'0 0.0
2017-Sep-13 23:29N 39°34' E 002°38'0 0.0
2017-Sep-13 22:59N 39°34' E 002°38'0 0.0
2017-Sep-13 22:29N 39°34' E 002°38'0 0.0
2017-Sep-13 21:59N 39°34' E 002°38'0 0.0
2017-Sep-13 21:29N 39°34' E 002°38'0 0.0
2017-Sep-13 20:56N 39°34' E 002°38'0 0.0
2017-Sep-13 20:29N 39°34' E 002°38'0 0.0
2017-Sep-13 19:59N 39°34' E 002°38'0 0.0
2017-Sep-13 19:29N 39°34' E 002°38'0 0.0
2017-Sep-13 18:53N 39°34' E 002°38'0 0.0
2017-Sep-13 18:29N 39°34' E 002°38'0 0.0
2017-Sep-13 17:59N 39°34' E 002°38'0 0.0
2017-Sep-13 17:29N 39°34' E 002°38'0 0.0
2017-Sep-13 16:59N 39°34' E 002°38'0 0.0
2017-Sep-13 16:29N 39°34' E 002°38'0 0.0
2017-Sep-13 15:59N 39°34' E 002°38'0 0.0
2017-Sep-13 15:29N 39°34' E 002°38'0 0.0
2017-Sep-13 15:01N 39°34' E 002°38'1 2.8
2017-Sep-13 14:30N 39°33' E 002°40'1 2.6
2017-Sep-13 13:58N 39°34' E 002°38'0 0.0
2017-Sep-13 13:28N 39°34' E 002°38'0 0.0
2017-Sep-13 12:58N 39°34' E 002°38'0 0.0
2017-Sep-13 12:28N 39°34' E 002°38'0 0.0
2017-Sep-13 11:58N 39°34' E 002°38'0 0.0
2017-Sep-13 11:28N 39°34' E 002°38'0 0.0
2017-Sep-13 10:58N 39°34' E 002°38'0 0.0
2017-Sep-13 10:28N 39°34' E 002°38'0 0.0
2017-Sep-13 09:58N 39°34' E 002°38'0 0.0
2017-Sep-13 09:28N 39°34' E 002°38'0 0.0
2017-Sep-13 08:58N 39°34' E 002°38'0 0.0
2017-Sep-13 08:28N 39°34' E 002°38'0 0.0
2017-Sep-13 07:58N 39°34' E 002°38'0 0.0
2017-Sep-13 07:28N 39°34' E 002°38'0 0.0
2017-Sep-13 06:58N 39°34' E 002°38'0 0.0
2017-Sep-13 06:28N 39°34' E 002°38'0 0.0
2017-Sep-13 05:58N 39°34' E 002°38'0 0.0
2017-Sep-13 05:28N 39°34' E 002°38'0 0.0
2017-Sep-13 04:58N 39°34' E 002°38'0 0.0
2017-Sep-13 04:25N 39°34' E 002°38'0 0.0
2017-Sep-13 03:58N 39°34' E 002°38'0 0.0
2017-Sep-13 03:28N 39°34' E 002°38'0 0.0
2017-Sep-13 02:58N 39°34' E 002°38'0 0.0
2017-Sep-13 02:28N 39°34' E 002°38'0 0.0
2017-Sep-13 01:58N 39°34' E 002°38'0 0.0
2017-Sep-13 01:28N 39°34' E 002°38'0 0.0
2017-Sep-13 00:58N 39°34' E 002°38'0 0.0
2017-Sep-13 00:28N 39°34' E 002°38'0 0.0
2017-Sep-12 23:58N 39°34' E 002°38'0 0.0
2017-Sep-12 23:28N 39°34' E 002°38'0 0.0
2017-Sep-12 22:58N 39°34' E 002°38'0 0.0
2017-Sep-12 22:28N 39°34' E 002°38'0 0.0
2017-Sep-12 21:58N 39°34' E 002°38'0 0.0
2017-Sep-12 21:28N 39°34' E 002°38'0 0.0
2017-Sep-12 20:58N 39°34' E 002°38'0 0.0
2017-Sep-12 20:28N 39°34' E 002°38'0 0.0
2017-Sep-12 19:58N 39°34' E 002°38'0 0.0
2017-Sep-12 19:28N 39°34' E 002°38'0 0.0
2017-Sep-12 18:58N 39°34' E 002°38'0 0.0
2017-Sep-12 18:28N 39°34' E 002°38'0 0.0
2017-Sep-12 17:58N 39°34' E 002°38'0 0.0
2017-Sep-12 17:28N 39°34' E 002°38'0 0.0
2017-Sep-12 17:00N 39°34' E 002°38'0 0.0
2017-Sep-12 16:30N 39°34' E 002°38'0 0.0
2017-Sep-12 16:00N 39°34' E 002°38'1 2.8
2017-Sep-12 15:30N 39°32' E 002°39'1 2.1
2017-Sep-12 15:00N 39°31' E 002°39'0 0.4
2017-Sep-12 14:31N 39°32' E 002°39'0 0.7
2017-Sep-12 14:00N 39°32' E 002°39'0 0.5
2017-Sep-12 13:30N 39°32' E 002°40'2 4.3
2017-Sep-12 12:59N 39°34' E 002°38'0 0.0
2017-Sep-12 12:29N 39°34' E 002°38'0 0.0
2017-Sep-12 11:59N 39°34' E 002°38'0 0.0
2017-Sep-12 11:29N 39°34' E 002°38'0 0.0
2017-Sep-12 10:59N 39°34' E 002°38'0 0.0
2017-Sep-12 10:29N 39°34' E 002°38'0 0.0
2017-Sep-12 09:59N 39°34' E 002°38'0 0.0
2017-Sep-12 09:29N 39°34' E 002°38'0 0.0
2017-Sep-12 08:59N 39°34' E 002°38'0 0.0
2017-Sep-12 08:29N 39°34' E 002°38'0 0.0
2017-Sep-12 07:59N 39°34' E 002°38'0 0.0
2017-Sep-12 07:29N 39°34' E 002°38'0 0.0
2017-Sep-12 06:59N 39°34' E 002°38'0 0.0
2017-Sep-12 06:29N 39°34' E 002°38'0 0.0
2017-Sep-12 05:59N 39°34' E 002°38'0 0.0
2017-Sep-12 05:29N 39°34' E 002°38'0 0.0
2017-Sep-12 04:56N 39°34' E 002°38'0 0.0
2017-Sep-12 04:29N 39°34' E 002°38'0 0.0
2017-Sep-12 03:59N 39°34' E 002°38'0 0.0
2017-Sep-12 03:29N 39°34' E 002°38'0 0.0
2017-Sep-12 02:59N 39°34' E 002°38'0 0.0
2017-Sep-12 02:29N 39°34' E 002°38'0 0.0
2017-Sep-12 01:59N 39°34' E 002°38'0 0.0
2017-Sep-12 01:29N 39°34' E 002°38'0 0.0
2017-Sep-12 00:56N 39°34' E 002°38'0 0.0
2017-Sep-12 00:29N 39°34' E 002°38'0 0.0
2017-Sep-11 23:59N 39°34' E 002°38'0 0.0
2017-Sep-11 23:29N 39°34' E 002°38'0 0.0
2017-Sep-11 22:59N 39°34' E 002°38'0 0.0
2017-Sep-11 22:29N 39°34' E 002°38'0 0.0
2017-Sep-11 21:59N 39°34' E 002°38'0 0.0
2017-Sep-11 21:29N 39°34' E 002°38'0 0.0
2017-Sep-11 20:59N 39°34' E 002°38'0 0.0
2017-Sep-11 20:29N 39°34' E 002°38'0 0.0
2017-Sep-11 19:59N 39°34' E 002°38'0 0.0
2017-Sep-11 19:29N 39°34' E 002°38'0 0.0
2017-Sep-11 18:59N 39°34' E 002°38'0 0.0
2017-Sep-11 18:29N 39°34' E 002°38'0 0.0
2017-Sep-11 17:59N 39°34' E 002°38'0 0.0
2017-Sep-11 17:29N 39°34' E 002°38'0 0.0
2017-Sep-11 16:53N 39°34' E 002°38'0 0.0
2017-Sep-11 16:29N 39°34' E 002°38'0 0.0
2017-Sep-11 15:59N 39°34' E 002°38'0 0.0
2017-Sep-11 15:29N 39°34' E 002°38'0 0.0
2017-Sep-11 14:59N 39°34' E 002°38'0 0.0
2017-Sep-11 14:29N 39°34' E 002°38'0 0.0
2017-Sep-11 13:59N 39°34' E 002°38'0 0.0
2017-Sep-11 13:23N 39°34' E 002°38'0 0.0
2017-Sep-11 12:59N 39°34' E 002°38'0 0.0
2017-Sep-11 12:29N 39°34' E 002°38'0 0.0
2017-Sep-11 11:59N 39°34' E 002°38'0 0.0
2017-Sep-11 11:29N 39°34' E 002°38'0 0.0
2017-Sep-11 10:59N 39°34' E 002°38'0 0.0
2017-Sep-11 10:29N 39°34' E 002°38'0 0.0
2017-Sep-11 09:59N 39°34' E 002°38'0 0.0
2017-Sep-11 09:29N 39°34' E 002°38'0 0.0
2017-Sep-11 08:59N 39°34' E 002°38'0 0.0
2017-Sep-11 08:29N 39°34' E 002°38'0 0.0
2017-Sep-11 07:59N 39°34' E 002°38'0 0.0
2017-Sep-11 07:29N 39°34' E 002°38'0 0.0
2017-Sep-11 06:59N 39°34' E 002°38'0 0.0
2017-Sep-11 06:29N 39°34' E 002°38'0 0.0
2017-Sep-11 05:59N 39°34' E 002°38'0 0.0
2017-Sep-11 05:29N 39°34' E 002°38'0 0.0
2017-Sep-11 04:59N 39°34' E 002°38'0 0.0
2017-Sep-11 04:29N 39°34' E 002°38'0 0.0
2017-Sep-11 03:59N 39°34' E 002°38'0 0.0
2017-Sep-11 03:29N 39°34' E 002°38'0 0.0
2017-Sep-11 02:59N 39°34' E 002°38'0 0.0
2017-Sep-11 02:29N 39°34' E 002°38'0 0.0
2017-Sep-11 01:56N 39°34' E 002°38'0 0.0
2017-Sep-11 01:29N 39°34' E 002°38'0 0.0
2017-Sep-11 00:59N 39°34' E 002°38'0 0.0
2017-Sep-11 00:29N 39°34' E 002°38'0 0.0
2017-Sep-10 23:59N 39°34' E 002°38'0 0.0
2017-Sep-10 23:29N 39°34' E 002°38'0 0.0
2017-Sep-10 22:59N 39°34' E 002°38'0 0.0
2017-Sep-10 22:29N 39°34' E 002°38'0 0.0
2017-Sep-10 21:59N 39°34' E 002°38'0 0.0
2017-Sep-10 21:29N 39°34' E 002°38'0 0.0
2017-Sep-10 20:59N 39°34' E 002°38'0 0.0
2017-Sep-10 20:29N 39°34' E 002°38'0 0.0
2017-Sep-10 19:59N 39°34' E 002°38'0 0.0
2017-Sep-10 19:29N 39°34' E 002°38'0 0.0
2017-Sep-10 18:59N 39°34' E 002°38'0 0.0
2017-Sep-10 18:29N 39°34' E 002°38'0 0.0
2017-Sep-10 17:59N 39°34' E 002°38'0 0.0
2017-Sep-10 17:29N 39°34' E 002°38'0 0.0
2017-Sep-10 16:59N 39°34' E 002°38'0 0.0
2017-Sep-10 16:29N 39°34' E 002°38'0 0.0
2017-Sep-10 15:59N 39°34' E 002°38'0 0.0
2017-Sep-10 15:29N 39°34' E 002°38'  

Dump ship's entire track history